Time;durP1;ratioP1;P1;durP2;ratioP2;P2;SDS_P1;SDS_P2;PMS_P1;PMS_P2;Temp;Humidity;BMP_temperature;BMP_pressure;BME280_temperature;BME280_humidity;BME280_pressure;Samples;Min_cycle;Max_cycle;Signal;HPM_P1;HPM_P2
2022/04/27 00:01:22;;;;;;;6.75;4.68;;;;;;;;;;5028738;28;20280;-73
2022/04/27 00:03:48;;;;;;;7.13;4.80;;;;;;;;;;5029353;28;20068;-73
2022/04/27 00:06:13;;;;;;;6.07;4.78;;;;;;;;;;5028962;28;20026;-73
2022/04/27 00:08:38;;;;;;;7.03;4.45;;;;;;;;;;5028644;28;20484;-73
2022/04/27 00:11:04;;;;;;;7.15;4.63;;;;;;;;;;5028473;28;20656;-73
2022/04/27 00:13:30;;;;;;;6.55;4.70;;;;;;;;;;5029226;28;20036;-73
2022/04/27 00:15:55;;;;;;;6.30;4.88;;;;;;;;;;5029216;28;20034;-73
2022/04/27 00:18:21;;;;;;;7.00;4.60;;;;;;;;;;5028314;28;20055;-72
2022/04/27 00:20:46;;;;;;;6.28;4.70;;;;;;;;;;5026454;28;20257;-73
2022/04/27 00:23:11;;;;;;;6.88;4.57;;;;;;;;;;5028282;28;20391;-72
2022/04/27 00:25:37;;;;;;;7.82;4.95;;;;;;;;;;5028419;28;20471;-73
2022/04/27 00:28:03;;;;;;;5.85;4.85;;;;;;;;;;5034625;28;20021;-74
2022/04/27 00:30:28;;;;;;;6.80;4.90;;;;;;;;;;5048428;28;20041;-72
2022/04/27 00:32:53;;;;;;;7.25;4.90;;;;;;;;;;5048154;28;20090;-73
2022/04/27 00:35:18;;;;;;;6.70;4.97;;;;;;;;;;5039693;28;20076;-73
2022/04/27 00:37:44;;;;;;;7.50;4.90;;;;;;;;;;5028072;28;20025;-73
2022/04/27 00:40:10;;;;;;;6.97;4.80;;;;;;;;;;5028125;28;20529;-73
2022/04/27 00:42:37;;;;;;;7.05;4.97;;;;;;;;;;5028660;28;20030;-73
2022/04/27 00:45:03;;;;;;;5.90;4.80;;;;;;;;;;5043755;28;20021;-72
2022/04/27 00:47:30;;;;;;;5.95;4.82;;;;;;;;;;5036901;28;20021;-73
2022/04/27 00:49:57;;;;;;;7.88;5.03;;;;;;;;;;5027803;28;20064;-73
2022/04/27 00:52:23;;;;;;;6.18;4.85;;;;;;;;;;5027748;28;20029;-73
2022/04/27 00:54:51;;;;;;;6.18;4.63;;;;;;;;;;5028256;28;20399;-73
2022/04/27 00:57:18;;;;;;;5.47;4.53;;;;;;;;;;5028305;28;20079;-73
2022/04/27 00:59:46;;;;;;;5.85;4.85;;;;;;;;;;5027508;28;20028;-73
2022/04/27 01:02:12;;;;;;;9.48;5.43;;;;;;;;;;5028507;28;20021;-73
2022/04/27 01:04:38;;;;;;;5.82;4.32;;;;;;;;;;5026274;28;20033;-72
2022/04/27 01:07:05;;;;;;;6.43;4.53;;;;;;;;;;5026915;28;20048;-73
2022/04/27 01:09:32;;;;;;;4.97;3.83;;;;;;;;;;5027261;28;20234;-73
2022/04/27 01:11:58;;;;;;;4.07;3.35;;;;;;;;;;5019762;28;20032;-72
2022/04/27 01:14:24;;;;;;;6.38;3.80;;;;;;;;;;5027551;28;20064;-73
2022/04/27 01:16:52;;;;;;;4.90;4.07;;;;;;;;;;5038631;28;20029;-73
2022/04/27 01:19:17;;;;;;;4.35;3.70;;;;;;;;;;5047004;28;20078;-73
2022/04/27 01:21:43;;;;;;;6.75;3.90;;;;;;;;;;5031640;28;20104;-73
2022/04/27 01:24:10;;;;;;;4.28;3.83;;;;;;;;;;5027674;28;20072;-72
2022/04/27 01:26:37;;;;;;;7.05;3.50;;;;;;;;;;5027496;28;20034;-73
2022/04/27 01:29:02;;;;;;;7.00;3.90;;;;;;;;;;5026414;28;20077;-73
2022/04/27 01:31:27;;;;;;;6.00;4.40;;;;;;;;;;5027401;28;20326;-72
2022/04/27 01:33:55;;;;;;;7.47;4.32;;;;;;;;;;5029319;28;20021;-72
2022/04/27 01:36:20;;;;;;;7.20;4.72;;;;;;;;;;5026825;28;20441;-73
2022/04/27 01:38:45;;;;;;;5.60;3.80;;;;;;;;;;5028211;28;20026;-71
2022/04/27 01:41:11;;;;;;;4.70;4.18;;;;;;;;;;5026848;28;20105;-72
2022/04/27 01:43:37;;;;;;;5.35;4.03;;;;;;;;;;5027577;28;20026;-72
2022/04/27 01:46:05;;;;;;;5.10;3.85;;;;;;;;;;5025314;28;20468;-72
2022/04/27 01:48:32;;;;;;;5.65;3.70;;;;;;;;;;5026624;28;20595;-73
2022/04/27 01:50:57;;;;;;;7.10;4.63;;;;;;;;;;5014639;28;20030;-72
2022/04/27 01:56:07;;;;;;;7.97;4.95;;;;;;;;;;5026419;28;20091;-73
2022/04/27 01:58:32;;;;;;;8.68;5.35;;;;;;;;;;5025350;28;20017;-72
2022/04/27 02:00:58;;;;;;;13.50;5.72;;;;;;;;;;5027215;28;20519;-72
2022/04/27 02:03:24;;;;;;;23.77;8.98;;;;;;;;;;5027579;28;20037;-72
2022/04/27 02:05:52;;;;;;;8.15;4.82;;;;;;;;;;5046365;28;20063;-73
2022/04/27 02:08:18;;;;;;;6.00;4.15;;;;;;;;;;5043643;28;20447;-72
2022/04/27 02:10:43;;;;;;;5.95;3.85;;;;;;;;;;5026278;28;20101;-72
2022/04/27 02:13:09;;;;;;;5.38;4.07;;;;;;;;;;5026763;28;20064;-72
2022/04/27 02:15:35;;;;;;;6.03;4.28;;;;;;;;;;5026603;28;20029;-72
2022/04/27 02:18:01;;;;;;;6.15;4.55;;;;;;;;;;5033697;28;20497;-73
2022/04/27 02:20:27;;;;;;;5.88;4.55;;;;;;;;;;5040765;28;20460;-73
2022/04/27 02:22:53;;;;;;;8.05;4.72;;;;;;;;;;5026762;28;20063;-72
2022/04/27 02:25:19;;;;;;;7.78;4.38;;;;;;;;;;5026708;28;20036;-72
2022/04/27 02:27:44;;;;;;;6.72;4.00;;;;;;;;;;5027086;28;20037;-73
2022/04/27 02:30:10;;;;;;;5.88;4.32;;;;;;;;;;5025456;28;20044;-72
2022/04/27 02:32:37;;;;;;;5.15;4.18;;;;;;;;;;5025523;28;20400;-72
2022/04/27 02:35:03;;;;;;;5.82;4.22;;;;;;;;;;5035911;28;20013;-72
2022/04/27 02:37:29;;;;;;;4.90;3.90;;;;;;;;;;5026333;28;20037;-72
2022/04/27 02:39:55;;;;;;;4.95;3.92;;;;;;;;;;5026339;28;20029;-73
2022/04/27 02:42:20;;;;;;;6.00;4.28;;;;;;;;;;5026810;28;20471;-72
2022/04/27 02:44:45;;;;;;;5.70;4.28;;;;;;;;;;5025286;28;20032;-72
2022/04/27 02:47:10;;;;;;;9.50;5.70;;;;;;;;;;5026598;28;20029;-73
2022/04/27 02:52:19;;;;;;;7.65;5.22;;;;;;;;;;5026260;28;20036;-72
2022/04/27 02:54:45;;;;;;;8.60;5.40;;;;;;;;;;5026105;28;20025;-72
2022/04/27 02:57:10;;;;;;;7.63;5.00;;;;;;;;;;5025787;28;20557;-73
2022/04/27 02:59:35;;;;;;;8.32;5.47;;;;;;;;;;5025927;28;20083;-72
2022/04/27 03:02:00;;;;;;;9.15;5.85;;;;;;;;;;5025195;28;20013;-71
2022/04/27 03:04:26;;;;;;;9.45;6.07;;;;;;;;;;5025989;28;20021;-72
2022/04/27 03:06:51;;;;;;;11.10;6.10;;;;;;;;;;5034311;28;20021;-73
2022/04/27 03:09:17;;;;;;;10.48;6.03;;;;;;;;;;5029688;28;20435;-72
2022/04/27 03:11:42;;;;;;;10.30;6.75;;;;;;;;;;5026322;28;20272;-72
2022/04/27 03:14:07;;;;;;;10.95;6.50;;;;;;;;;;5026068;28;20511;-72
2022/04/27 03:16:33;;;;;;;10.57;6.93;;;;;;;;;;5026377;28;20025;-72
2022/04/27 03:18:58;;;;;;;11.82;7.40;;;;;;;;;;5024369;28;20029;-72
2022/04/27 03:21:23;;;;;;;9.20;6.40;;;;;;;;;;5025758;28;20537;-72
2022/04/27 03:23:49;;;;;;;12.65;6.80;;;;;;;;;;5025264;28;20022;-72
2022/04/27 03:26:14;;;;;;;12.52;6.82;;;;;;;;;;5025864;28;20376;-73
2022/04/27 03:28:39;;;;;;;13.18;7.18;;;;;;;;;;5027420;28;20175;-72
2022/04/27 03:31:05;;;;;;;10.60;6.63;;;;;;;;;;5032646;28;20032;-73
2022/04/27 03:33:30;;;;;;;11.07;6.50;;;;;;;;;;5047919;28;20020;-73
2022/04/27 03:35:56;;;;;;;13.13;7.20;;;;;;;;;;5049779;28;20479;-72
2022/04/27 03:38:21;;;;;;;12.20;7.13;;;;;;;;;;5037316;28;20598;-72
2022/04/27 03:40:47;;;;;;;11.82;6.72;;;;;;;;;;5029444;28;20571;-72
2022/04/27 03:43:13;;;;;;;12.82;7.70;;;;;;;;;;5028867;28;20579;-72
2022/04/27 03:45:38;;;;;;;12.70;7.07;;;;;;;;;;5027858;28;20409;-73
2022/04/27 03:48:04;;;;;;;12.10;6.40;;;;;;;;;;5029601;28;20486;-72
2022/04/27 03:50:29;;;;;;;18.48;7.43;;;;;;;;;;5026311;28;20056;-72
2022/04/27 03:52:54;;;;;;;10.85;7.05;;;;;;;;;;5029506;28;20025;-72
2022/04/27 03:55:20;;;;;;;12.05;6.88;;;;;;;;;;5029185;28;20025;-72
2022/04/27 03:57:45;;;;;;;10.63;6.55;;;;;;;;;;5028495;28;20538;-72
2022/04/27 04:00:11;;;;;;;11.68;6.93;;;;;;;;;;5029702;28;20051;-72
2022/04/27 04:02:37;;;;;;;12.25;6.05;;;;;;;;;;5043594;28;20112;-72
2022/04/27 04:05:03;;;;;;;12.07;7.10;;;;;;;;;;5048893;28;20200;-73
2022/04/27 04:07:29;;;;;;;9.73;6.15;;;;;;;;;;5009671;28;20037;-72
2022/04/27 04:09:54;;;;;;;13.23;5.97;;;;;;;;;;5008450;28;20034;-73
2022/04/27 04:12:20;;;;;;;8.63;6.25;;;;;;;;;;5043464;28;20058;-73
2022/04/27 04:14:45;;;;;;;11.02;5.88;;;;;;;;;;5034757;28;20036;-72
2022/04/27 04:17:10;;;;;;;11.18;6.40;;;;;;;;;;5028322;28;20028;-73
2022/04/27 04:19:36;;;;;;;13.35;5.60;;;;;;;;;;5029178;28;20036;-72
2022/04/27 04:22:01;;;;;;;12.40;5.70;;;;;;;;;;5028791;28;20045;-72
2022/04/27 04:24:27;;;;;;;9.70;6.13;;;;;;;;;;5031627;28;20031;-73
2022/04/27 04:29:37;;;;;;;8.77;5.60;;;;;;;;;;5028626;28;20513;-72
2022/04/27 04:32:02;;;;;;;8.95;5.97;;;;;;;;;;5028418;28;20284;-73
2022/04/27 04:34:28;;;;;;;9.05;5.75;;;;;;;;;;5027796;28;20546;-72
2022/04/27 04:36:53;;;;;;;8.60;5.63;;;;;;;;;;5028487;28;20037;-72
2022/04/27 04:39:19;;;;;;;7.28;5.18;;;;;;;;;;5026553;28;20557;-72
2022/04/27 04:41:44;;;;;;;6.85;4.95;;;;;;;;;;5029719;28;20030;-72
2022/04/27 04:44:10;;;;;;;6.60;5.13;;;;;;;;;;5027674;28;20523;-73
2022/04/27 04:46:35;;;;;;;8.38;5.25;;;;;;;;;;5027932;28;20483;-72
2022/04/27 04:49:00;;;;;;;7.10;4.60;;;;;;;;;;5028799;28;20048;-72
2022/04/27 04:51:26;;;;;;;7.68;5.50;;;;;;;;;;5027274;28;20056;-74
2022/04/27 04:53:51;;;;;;;7.95;5.05;;;;;;;;;;5027946;28;20424;-72
2022/04/27 04:56:17;;;;;;;8.27;5.85;;;;;;;;;;5032661;28;20036;-72
2022/04/27 04:58:42;;;;;;;7.85;5.55;;;;;;;;;;5027975;28;20490;-73
2022/04/27 05:01:07;;;;;;;7.55;5.38;;;;;;;;;;5028489;28;20029;-73
2022/04/27 05:03:36;;;;;;;9.73;5.30;;;;;;;;;;5028850;28;20053;-73
2022/04/27 05:06:02;;;;;;;9.57;5.93;;;;;;;;;;5008294;28;20029;-73
2022/04/27 05:08:27;;;;;;;10.43;6.03;;;;;;;;;;5007927;28;20494;-72
2022/04/27 05:10:53;;;;;;;9.43;5.72;;;;;;;;;;5021613;28;20136;-72
2022/04/27 05:13:19;;;;;;;8.27;5.75;;;;;;;;;;5028094;28;20032;-73
2022/04/27 05:15:44;;;;;;;9.80;6.82;;;;;;;;;;5035283;28;20037;-72
2022/04/27 05:18:09;;;;;;;8.15;6.13;;;;;;;;;;5034712;28;20017;-72
2022/04/27 05:20:37;;;;;;;9.45;6.95;;;;;;;;;;5047814;28;20021;-72
2022/04/27 05:23:02;;;;;;;13.25;7.10;;;;;;;;;;5047144;28;20151;-72
2022/04/27 05:25:28;;;;;;;9.52;6.30;;;;;;;;;;5021570;28;20060;-73
2022/04/27 05:27:53;;;;;;;9.10;6.13;;;;;;;;;;5025010;28;20029;-73
2022/04/27 05:33:03;;;;;;;9.68;6.53;;;;;;;;;;5026215;28;20704;-73
2022/04/27 05:35:28;;;;;;;9.07;6.50;;;;;;;;;;5026154;28;20220;-73
2022/04/27 05:37:53;;;;;;;9.80;6.75;;;;;;;;;;5027147;28;20060;-73
2022/04/27 05:40:18;;;;;;;9.70;7.47;;;;;;;;;;5026946;28;20101;-73
2022/04/27 05:42:45;;;;;;;12.93;7.65;;;;;;;;;;5027252;28;20040;-73
2022/04/27 05:45:10;;;;;;;14.00;7.65;;;;;;;;;;5027586;28;20321;-72
2022/04/27 05:47:36;;;;;;;10.55;7.65;;;;;;;;;;5025370;28;20034;-72
2022/04/27 05:50:04;;;;;;;12.73;8.15;;;;;;;;;;5026192;28;20029;-72
2022/04/27 05:52:29;;;;;;;11.10;7.25;;;;;;;;;;5026042;28;20041;-72
2022/04/27 05:54:55;;;;;;;12.73;8.20;;;;;;;;;;5026416;28;20037;-72
2022/04/27 05:57:20;;;;;;;11.98;8.43;;;;;;;;;;5026529;28;20021;-72
2022/04/27 05:59:47;;;;;;;13.38;8.40;;;;;;;;;;5026404;28;20038;-72
2022/04/27 06:02:12;;;;;;;12.85;8.38;;;;;;;;;;5025503;28;20482;-72
2022/04/27 06:04:38;;;;;;;10.05;7.10;;;;;;;;;;5024008;28;20657;-72
2022/04/27 06:07:07;;;;;;;9.50;5.65;;;;;;;;;;5023836;28;20025;-73
2022/04/27 06:09:33;;;;;;;9.80;6.93;;;;;;;;;;5021841;28;20037;-74
2022/04/27 06:11:58;;;;;;;10.75;6.75;;;;;;;;;;5021577;28;20419;-75
2022/04/27 06:14:25;;;;;;;10.45;6.63;;;;;;;;;;5019522;28;20037;-74
2022/04/27 06:16:51;;;;;;;15.48;7.88;;;;;;;;;;5024359;28;20025;-72
2022/04/27 06:19:16;;;;;;;11.43;8.68;;;;;;;;;;5023862;28;20322;-72
2022/04/27 06:21:42;;;;;;;10.02;7.38;;;;;;;;;;5022647;28;20460;-73
2022/04/27 06:24:07;;;;;;;8.60;6.80;;;;;;;;;;5026526;28;20117;-72
2022/04/27 06:26:33;;;;;;;10.55;7.68;;;;;;;;;;5023528;28;20071;-71
2022/04/27 06:29:01;;;;;;;11.02;7.50;;;;;;;;;;5024227;28;20087;-73
2022/04/27 06:31:27;;;;;;;11.85;7.80;;;;;;;;;;5023062;28;20022;-73
2022/04/27 06:33:52;;;;;;;9.55;7.60;;;;;;;;;;5025518;28;20117;-72
2022/04/27 06:36:17;;;;;;;9.70;7.18;;;;;;;;;;5025262;28;20219;-72
2022/04/27 06:38:43;;;;;;;11.70;7.38;;;;;;;;;;5020482;28;20311;-72
2022/04/27 06:41:08;;;;;;;10.55;7.22;;;;;;;;;;5025065;28;20041;-73
2022/04/27 06:43:34;;;;;;;12.07;7.18;;;;;;;;;;5030014;28;20087;-73
2022/04/27 06:46:00;;;;;;;10.20;7.28;;;;;;;;;;5024695;28;20083;-73
2022/04/27 06:48:26;;;;;;;9.68;7.47;;;;;;;;;;5024613;28;20095;-72
2022/04/27 06:50:51;;;;;;;9.55;7.38;;;;;;;;;;5024817;28;20487;-72
2022/04/27 06:53:16;;;;;;;13.30;7.53;;;;;;;;;;5025446;28;20248;-72
2022/04/27 06:55:42;;;;;;;8.65;7.15;;;;;;;;;;5025315;28;20034;-74
2022/04/27 06:58:07;;;;;;;10.30;7.47;;;;;;;;;;5023977;28;20022;-73
2022/04/27 07:00:32;;;;;;;11.82;8.52;;;;;;;;;;5024388;28;20033;-73
2022/04/27 07:02:58;;;;;;;10.55;8.18;;;;;;;;;;5027416;28;20124;-73
2022/04/27 07:05:25;;;;;;;15.90;8.57;;;;;;;;;;5028793;28;20029;-73
2022/04/27 07:07:50;;;;;;;13.77;8.65;;;;;;;;;;5029606;28;20029;-73
2022/04/27 07:10:17;;;;;;;14.90;10.00;;;;;;;;;;5025586;28;20659;-73
2022/04/27 07:12:48;;;;;;;14.95;10.02;;;;;;;;;;5029185;28;20024;-74
2022/04/27 07:15:14;;;;;;;14.32;10.75;;;;;;;;;;5028144;28;20061;-72
2022/04/27 07:17:39;;;;;;;15.35;10.05;;;;;;;;;;5028815;28;20336;-73
2022/04/27 07:20:06;;;;;;;14.82;10.50;;;;;;;;;;5027857;28;20444;-73
2022/04/27 07:22:31;;;;;;;14.05;10.30;;;;;;;;;;5029315;28;20025;-73
2022/04/27 07:24:56;;;;;;;16.73;11.43;;;;;;;;;;5026082;28;20074;-74
2022/04/27 07:27:21;;;;;;;15.43;11.02;;;;;;;;;;5027404;28;20199;-72
2022/04/27 07:29:47;;;;;;;17.35;12.15;;;;;;;;;;5028828;28;20386;-73
2022/04/27 07:32:12;;;;;;;17.42;12.38;;;;;;;;;;5026332;28;20035;-74
2022/04/27 07:34:38;;;;;;;19.52;12.65;;;;;;;;;;5029426;28;20116;-72
2022/04/27 07:37:05;;;;;;;18.58;12.65;;;;;;;;;;5027204;28;20064;-75
2022/04/27 07:39:31;;;;;;;21.00;13.63;;;;;;;;;;5027767;28;20021;-72
2022/04/27 07:41:56;;;;;;;24.33;14.05;;;;;;;;;;5029228;28;20036;-73
2022/04/27 07:44:21;;;;;;;18.88;13.52;;;;;;;;;;5027621;28;20018;-73
2022/04/27 07:46:47;;;;;;;20.52;14.75;;;;;;;;;;5029043;28;20025;-72
2022/04/27 07:49:19;;;;;;;24.30;16.13;;;;;;;;;;5027892;28;20018;-74
2022/04/27 07:51:45;;;;;;;20.90;14.68;;;;;;;;;;5025888;28;20130;-72
2022/04/27 07:54:11;;;;;;;24.15;16.25;;;;;;;;;;5027765;28;20352;-72
2022/04/27 07:56:36;;;;;;;24.55;16.67;;;;;;;;;;5029081;28;20036;-75
2022/04/27 07:59:01;;;;;;;23.60;15.90;;;;;;;;;;5027176;28;20438;-73
2022/04/27 08:01:26;;;;;;;22.27;15.52;;;;;;;;;;5028839;28;20893;-73
2022/04/27 08:03:52;;;;;;;24.02;16.70;;;;;;;;;;5029085;28;20407;-73
2022/04/27 08:06:18;;;;;;;24.75;16.77;;;;;;;;;;5026422;28;20112;-73
2022/04/27 08:08:43;;;;;;;24.27;16.90;;;;;;;;;;5027806;28;20029;-72
2022/04/27 08:11:10;;;;;;;26.08;18.13;;;;;;;;;;5026489;28;20411;-72
2022/04/27 08:13:35;;;;;;;25.80;17.60;;;;;;;;;;5020265;28;20029;-73
2022/04/27 08:16:00;;;;;;;23.67;16.10;;;;;;;;;;5024009;28;20045;-72
2022/04/27 08:18:26;;;;;;;24.92;17.02;;;;;;;;;;5020138;28;20021;-72
2022/04/27 08:23:37;;;;;;;23.90;15.63;;;;;;;;;;5025529;28;20080;-72
2022/04/27 08:26:05;;;;;;;24.52;14.82;;;;;;;;;;5029614;28;20028;-73
2022/04/27 08:28:31;;;;;;;23.80;15.63;;;;;;;;;;5027526;28;20033;-73
2022/04/27 08:30:57;;;;;;;24.17;16.75;;;;;;;;;;5027743;28;20017;-72
2022/04/27 08:33:22;;;;;;;24.63;15.38;;;;;;;;;;5028425;28;20033;-73
2022/04/27 08:35:48;;;;;;;23.35;16.45;;;;;;;;;;5027914;28;20032;-72
2022/04/27 08:38:14;;;;;;;22.13;15.20;;;;;;;;;;5027166;28;20593;-71
2022/04/27 08:40:43;;;;;;;26.48;17.17;;;;;;;;;;5025447;28;20041;-73
2022/04/27 08:43:11;;;;;;;25.08;16.63;;;;;;;;;;5035425;28;20017;-70
2022/04/27 08:45:41;;;;;;;27.63;19.25;;;;;;;;;;5026427;28;20033;-76
2022/04/27 08:48:07;;;;;;;27.83;18.42;;;;;;;;;;5027661;28;20037;-75
2022/04/27 08:50:32;;;;;;;23.05;16.00;;;;;;;;;;5024404;28;20690;-70
2022/04/27 08:52:57;;;;;;;23.13;14.77;;;;;;;;;;5027126;28;20075;-74
2022/04/27 08:55:27;;;;;;;24.23;15.40;;;;;;;;;;5028493;28;20041;-71
2022/04/27 08:57:53;;;;;;;26.00;18.25;;;;;;;;;;5026642;28;20171;-71
2022/04/27 09:00:20;;;;;;;26.65;19.10;;;;;;;;;;5026931;28;20025;-73
2022/04/27 09:02:46;;;;;;;23.52;16.42;;;;;;;;;;5028211;28;20035;-69
2022/04/27 09:05:13;;;;;;;22.63;15.93;;;;;;;;;;5026615;28;20051;-74
2022/04/27 09:07:39;;;;;;;23.60;16.02;;;;;;;;;;5026559;28;20113;-72
2022/04/27 09:10:07;;;;;;;22.13;16.20;;;;;;;;;;5024632;28;20052;-72
2022/04/27 09:12:34;;;;;;;25.13;16.50;;;;;;;;;;5026719;28;20395;-71
2022/04/27 09:15:09;;;;;;;22.10;15.27;;;;;;;;;;5024436;28;20022;-72
2022/04/27 09:23:07;;;;;;;22.08;15.32;;;;;;;;;;5023410;28;20036;-73
2022/04/27 09:25:36;;;;;;;19.88;14.63;;;;;;;;;;5025287;28;20025;-72
2022/04/27 09:28:03;;;;;;;20.90;13.77;;;;;;;;;;5026950;28;20021;-71
2022/04/27 09:30:32;;;;;;;22.58;15.38;;;;;;;;;;5025152;28;20033;-72
2022/04/27 09:32:58;;;;;;;21.52;14.95;;;;;;;;;;5023356;28;20033;-72
2022/04/27 09:35:34;;;;;;;21.23;15.57;;;;;;;;;;5026817;28;20476;-70
2022/04/27 09:38:18;;;;;;;18.33;13.82;;;;;;;;;;5018436;28;20025;-71
2022/04/27 09:40:54;;;;;;;20.17;15.38;;;;;;;;;;5026330;28;20056;-73
2022/04/27 09:43:49;;;;;;;21.20;14.77;;;;;;;;;;5024340;28;20032;-71
2022/04/27 09:46:23;;;;;;;20.25;14.43;;;;;;;;;;5024363;28;20096;-72
2022/04/27 09:49:09;;;;;;;20.55;14.75;;;;;;;;;;5023704;28;20398;-71
2022/04/27 09:51:36;;;;;;;22.00;15.18;;;;;;;;;;5025955;28;20100;-73
2022/04/27 09:54:03;;;;;;;21.60;15.55;;;;;;;;;;5024198;28;20511;-72
2022/04/27 09:56:31;;;;;;;19.90;14.27;;;;;;;;;;5025828;28;20031;-72
2022/04/27 09:59:00;;;;;;;18.98;14.80;;;;;;;;;;5025467;28;20082;-73
2022/04/27 10:01:26;;;;;;;17.08;13.43;;;;;;;;;;5022529;28;20021;-73
2022/04/27 10:03:57;;;;;;;16.35;14.18;;;;;;;;;;5024795;28;20036;-73
2022/04/27 10:06:22;;;;;;;17.00;14.00;;;;;;;;;;5025999;28;20017;-72
2022/04/27 10:08:49;;;;;;;14.95;12.98;;;;;;;;;;5025027;28;20048;-71
2022/04/27 10:11:14;;;;;;;16.27;13.38;;;;;;;;;;5026152;28;20017;-72
2022/04/27 10:13:40;;;;;;;15.30;12.20;;;;;;;;;;5024782;28;20092;-71
2022/04/27 10:16:06;;;;;;;16.73;13.38;;;;;;;;;;5022031;28;20040;-73
2022/04/27 10:18:32;;;;;;;15.48;12.23;;;;;;;;;;5025340;28;20450;-71
2022/04/27 10:20:57;;;;;;;12.68;10.85;;;;;;;;;;5024024;28;20302;-72
2022/04/27 10:23:24;;;;;;;13.93;11.35;;;;;;;;;;5024142;28;20484;-74
2022/04/27 10:26:27;;;;;;;11.55;10.00;;;;;;;;;;5025171;28;20025;-70
2022/04/27 10:28:58;;;;;;;13.25;11.30;;;;;;;;;;5025033;28;20029;-73
2022/04/27 10:31:47;;;;;;;13.98;12.52;;;;;;;;;;5024415;28;20474;-73
2022/04/27 10:34:22;;;;;;;13.98;11.45;;;;;;;;;;5026199;28;20091;-72
2022/04/27 10:36:50;;;;;;;14.75;11.73;;;;;;;;;;5025561;28;20025;-71
2022/04/27 10:39:19;;;;;;;11.32;10.00;;;;;;;;;;5028890;28;21237;-71
2022/04/27 10:42:16;;;;;;;14.43;11.55;;;;;;;;;;5028838;28;20034;-72
2022/04/27 10:44:47;;;;;;;13.32;10.65;;;;;;;;;;5027953;28;20110;-73
2022/04/27 10:47:14;;;;;;;13.15;11.38;;;;;;;;;;5028553;28;20040;-70
2022/04/27 10:49:40;;;;;;;12.02;10.73;;;;;;;;;;5027173;28;20399;-73
2022/04/27 10:52:08;;;;;;;11.82;10.63;;;;;;;;;;5029365;28;20036;-71
2022/04/27 10:54:37;;;;;;;13.45;11.98;;;;;;;;;;5028474;28;20021;-71
2022/04/27 10:57:14;;;;;;;13.95;10.80;;;;;;;;;;5020513;28;20021;-72
2022/04/27 11:00:03;;;;;;;12.60;11.18;;;;;;;;;;5029015;28;20032;-72
2022/04/27 11:02:39;;;;;;;11.73;10.52;;;;;;;;;;5030481;28;20057;-72
2022/04/27 11:05:20;;;;;;;11.38;10.25;;;;;;;;;;5024271;28;20017;-72
2022/04/27 11:08:01;;;;;;;9.90;8.90;;;;;;;;;;5026885;28;20030;-71
2022/04/27 11:10:27;;;;;;;12.95;11.65;;;;;;;;;;5025210;28;20553;-72
2022/04/27 11:12:53;;;;;;;12.35;10.50;;;;;;;;;;5028674;28;20033;-72
2022/04/27 11:15:25;;;;;;;11.65;10.30;;;;;;;;;;5027209;28;20028;-72
2022/04/27 11:18:01;;;;;;;15.23;12.35;;;;;;;;;;5028304;28;20539;-72
2022/04/27 11:20:37;;;;;;;12.93;11.30;;;;;;;;;;5029294;28;20103;-72
2022/04/27 11:23:19;;;;;;;17.15;12.52;;;;;;;;;;5027815;28;20275;-72
2022/04/27 11:25:49;;;;;;;;;;;;;;;;;;5028142;28;20420;-72
2022/04/27 11:28:15;;;;;;;11.95;10.35;;;;;;;;;;5029293;28;20456;-71
2022/04/27 11:30:40;;;;;;;14.75;10.57;;;;;;;;;;5027377;28;20025;-70
2022/04/27 11:33:06;;;;;;;11.75;10.30;;;;;;;;;;5038306;28;20509;-69
2022/04/27 11:35:47;;;;;;;14.60;9.70;;;;;;;;;;5040667;28;20114;-72
2022/04/27 11:38:19;;;;;;;12.83;10.17;;;;;;;;;;5038912;28;20185;-72
2022/04/27 11:40:46;;;;;;;11.45;9.88;;;;;;;;;;5038036;28;20037;-70
2022/04/27 11:43:13;;;;;;;15.25;12.23;;;;;;;;;;5027708;28;20026;-73
2022/04/27 11:45:38;;;;;;;12.23;10.77;;;;;;;;;;5032651;28;20386;-69
2022/04/27 11:48:07;;;;;;;13.48;10.23;;;;;;;;;;5026848;28;20112;-71
2022/04/27 11:50:34;;;;;;;12.70;10.32;;;;;;;;;;5026440;28;20027;-70
2022/04/27 11:53:02;;;;;;;11.68;9.75;;;;;;;;;;5028651;28;20220;-70
2022/04/27 11:55:28;;;;;;;15.00;10.85;;;;;;;;;;5033143;28;20100;-70
2022/04/27 11:57:54;;;;;;;11.00;9.70;;;;;;;;;;5025746;28;20408;-70
2022/04/27 12:00:21;;;;;;;10.88;9.45;;;;;;;;;;5017677;28;20030;-71
2022/04/27 12:02:47;;;;;;;13.32;9.95;;;;;;;;;;5026708;28;20022;-70
2022/04/27 12:05:15;;;;;;;12.63;9.32;;;;;;;;;;5030297;28;20471;-70
2022/04/27 12:07:47;;;;;;;13.68;9.77;;;;;;;;;;5023895;28;20061;-72
2022/04/27 12:10:14;;;;;;;11.80;9.55;;;;;;;;;;5023344;28;20480;-71
2022/04/27 12:12:40;;;;;;;10.90;8.75;;;;;;;;;;5022746;28;20617;-71
2022/04/27 12:15:08;;;;;;;13.40;9.07;;;;;;;;;;5027059;28;20474;-70
2022/04/27 12:17:56;;;;;;;12.45;9.43;;;;;;;;;;5027887;28;20044;-68
2022/04/27 12:20:26;;;;;;;10.60;8.52;;;;;;;;;;5018186;28;20029;-71
2022/04/27 12:22:55;;;;;;;10.50;9.40;;;;;;;;;;5023999;28;20554;-72
2022/04/27 12:25:22;;;;;;;12.07;8.57;;;;;;;;;;5023144;28;20021;-72
2022/04/27 12:27:48;;;;;;;12.13;8.70;;;;;;;;;;5023641;28;20439;-71
2022/04/27 12:30:19;;;;;;;13.20;8.30;;;;;;;;;;5023283;28;20696;-71
2022/04/27 12:32:45;;;;;;;9.45;8.18;;;;;;;;;;5021354;28;20037;-70
2022/04/27 12:37:54;;;;;;;11.23;8.50;;;;;;;;;;5022114;28;20068;-71
2022/04/27 12:40:20;;;;;;;9.52;7.32;;;;;;;;;;5021235;28;20033;-70
2022/04/27 12:43:05;;;;;;;9.73;7.68;;;;;;;;;;5024098;28;20493;-70
2022/04/27 12:45:31;;;;;;;11.20;8.75;;;;;;;;;;5019133;28;20093;-71
2022/04/27 12:47:56;;;;;;;9.75;7.78;;;;;;;;;;5022052;28;20033;-70
2022/04/27 12:50:22;;;;;;;9.10;7.47;;;;;;;;;;5022613;28;20550;-69
2022/04/27 12:52:49;;;;;;;7.60;6.65;;;;;;;;;;5022006;28;20053;-71
2022/04/27 12:55:16;;;;;;;12.20;8.68;;;;;;;;;;5022586;28;20385;-70
2022/04/27 12:57:49;;;;;;;8.57;7.57;;;;;;;;;;5017636;28;20040;-71
2022/04/27 13:00:36;;;;;;;8.27;6.90;;;;;;;;;;5015105;28;20036;-70
2022/04/27 13:03:01;;;;;;;13.77;7.30;;;;;;;;;;5025477;28;20048;-70
2022/04/27 13:05:27;;;;;;;8.68;7.00;;;;;;;;;;5021268;28;20029;-71
2022/04/27 13:07:52;;;;;;;9.65;7.30;;;;;;;;;;5024724;28;20422;-70
2022/04/27 13:13:03;;;;;;;9.43;6.40;;;;;;;;;;5019966;28;20111;-71
2022/04/27 13:15:29;;;;;;;5.63;5.03;;;;;;;;;;5024778;28;20053;-70
2022/04/27 13:17:54;;;;;;;7.35;6.13;;;;;;;;;;5021954;28;20372;-69
2022/04/27 13:20:19;;;;;;;8.27;6.05;;;;;;;;;;5020809;28;20486;-70
2022/04/27 13:22:45;;;;;;;9.23;6.13;;;;;;;;;;5021953;28;20375;-70
2022/04/27 13:25:10;;;;;;;9.60;6.15;;;;;;;;;;5020730;28;20025;-73
2022/04/27 13:27:36;;;;;;;6.40;5.68;;;;;;;;;;5016943;28;20033;-71
2022/04/27 13:30:01;;;;;;;6.88;5.50;;;;;;;;;;5018775;28;20644;-71
2022/04/27 13:32:27;;;;;;;6.80;5.38;;;;;;;;;;5025583;28;20040;-71
2022/04/27 13:34:52;;;;;;;6.30;4.75;;;;;;;;;;5018360;28;20494;-72
2022/04/27 13:37:18;;;;;;;10.52;7.55;;;;;;;;;;5018935;28;20120;-72
2022/04/27 13:39:43;;;;;;;5.53;4.90;;;;;;;;;;5029168;28;20188;-70
2022/04/27 13:42:09;;;;;;;6.05;4.75;;;;;;;;;;5020495;28;20033;-71
2022/04/27 13:44:34;;;;;;;4.28;3.88;;;;;;;;;;5017531;28;20033;-71
2022/04/27 13:47:00;;;;;;;4.90;4.10;;;;;;;;;;5023193;28;20116;-69
2022/04/27 13:49:25;;;;;;;5.50;3.83;;;;;;;;;;5018456;28;20185;-71
2022/04/27 13:51:51;;;;;;;5.28;4.25;;;;;;;;;;5020897;28;20083;-69
2022/04/27 13:54:18;;;;;;;5.50;3.90;;;;;;;;;;5019829;28;20107;-71
2022/04/27 13:56:43;;;;;;;5.00;3.53;;;;;;;;;;5020842;28;20030;-73
2022/04/27 13:59:12;;;;;;;4.30;3.90;;;;;;;;;;5018363;28;20025;-71
2022/04/27 14:01:39;;;;;;;6.20;3.92;;;;;;;;;;5019236;28;20291;-70
2022/04/27 14:04:04;;;;;;;6.45;3.80;;;;;;;;;;5019562;28;20447;-72
2022/04/27 14:06:30;;;;;;;5.60;4.28;;;;;;;;;;5024337;28;20064;-71
2022/04/27 14:08:56;;;;;;;13.05;8.45;;;;;;;;;;5021155;28;20095;-71
2022/04/27 14:14:05;;;;;;;7.97;4.97;;;;;;;;;;5021229;28;20052;-71
2022/04/27 14:19:14;;;;;;;4.88;2.92;;;;;;;;;;5021578;28;20044;-72
2022/04/27 14:21:39;;;;;;;8.57;4.28;;;;;;;;;;5020938;28;20139;-71
2022/04/27 14:24:07;;;;;;;12.07;6.53;;;;;;;;;;5019431;28;20030;-70
2022/04/27 14:26:32;;;;;;;19.85;11.00;;;;;;;;;;5021346;28;20029;-72
2022/04/27 14:28:58;;;;;;;50.22;26.73;;;;;;;;;;5021632;28;20140;-71
2022/04/27 14:31:23;;;;;;;7.60;4.70;;;;;;;;;;5020552;28;20482;-72
2022/04/27 14:33:49;;;;;;;15.20;10.15;;;;;;;;;;5018800;28;20048;-72
2022/04/27 14:36:14;;;;;;;4.38;3.30;;;;;;;;;;5018348;28;20560;-70
2022/04/27 14:38:39;;;;;;;2.60;2.40;;;;;;;;;;5020714;28;20042;-71
2022/04/27 14:41:06;;;;;;;6.15;2.97;;;;;;;;;;5029824;28;20017;-71
2022/04/27 14:43:31;;;;;;;3.75;2.67;;;;;;;;;;5016218;28;20032;-71
2022/04/27 14:45:57;;;;;;;3.47;2.50;;;;;;;;;;5023265;28;20029;-71
2022/04/27 14:48:22;;;;;;;4.97;2.25;;;;;;;;;;5020240;28;20029;-72
2022/04/27 14:50:48;;;;;;;3.10;2.28;;;;;;;;;;5022970;28;20032;-72
2022/04/27 14:53:14;;;;;;;3.90;2.28;;;;;;;;;;5025515;28;20113;-70
2022/04/27 14:55:40;;;;;;;2.75;2.28;;;;;;;;;;5024157;28;20032;-71
2022/04/27 14:58:05;;;;;;;2.50;2.30;;;;;;;;;;5023793;28;20037;-71
2022/04/27 15:00:30;;;;;;;2.70;2.47;;;;;;;;;;5022140;28;20644;-71